sensor_id;sensor_type;location;lat;lon;timestamp;P1;durP1;ratioP1;P2;durP2;ratioP2
61085;SDS011;46967;48.876;2.136;2023-01-24T00:00:28;19.85;;;12.15;;
61085;SDS011;46967;48.876;2.136;2023-01-24T00:02:54;18.15;;;11.60;;
61085;SDS011;46967;48.876;2.136;2023-01-24T00:05:19;19.17;;;12.02;;
61085;SDS011;46967;48.876;2.136;2023-01-24T00:07:44;19.98;;;12.52;;
61085;SDS011;46967;48.876;2.136;2023-01-24T00:10:10;20.95;;;12.07;;
61085;SDS011;46967;48.876;2.136;2023-01-24T00:12:36;20.88;;;11.63;;
61085;SDS011;46967;48.876;2.136;2023-01-24T00:15:01;19.15;;;12.20;;
61085;SDS011;46967;48.876;2.136;2023-01-24T00:17:27;19.00;;;11.60;;
61085;SDS011;46967;48.876;2.136;2023-01-24T00:19:53;18.85;;;12.27;;
61085;SDS011;46967;48.876;2.136;2023-01-24T00:22:18;19.15;;;12.38;;
61085;SDS011;46967;48.876;2.136;2023-01-24T00:24:43;20.38;;;13.02;;
61085;SDS011;46967;48.876;2.136;2023-01-24T00:27:09;19.58;;;12.18;;
61085;SDS011;46967;48.876;2.136;2023-01-24T00:29:34;20.67;;;12.55;;
61085;SDS011;46967;48.876;2.136;2023-01-24T00:31:59;21.17;;;12.80;;
61085;SDS011;46967;48.876;2.136;2023-01-24T00:34:25;22.00;;;12.90;;
61085;SDS011;46967;48.876;2.136;2023-01-24T00:36:50;21.00;;;12.32;;
61085;SDS011;46967;48.876;2.136;2023-01-24T00:39:15;20.17;;;12.75;;
61085;SDS011;46967;48.876;2.136;2023-01-24T00:41:41;18.25;;;11.82;;
61085;SDS011;46967;48.876;2.136;2023-01-24T00:44:06;19.55;;;12.27;;
61085;SDS011;46967;48.876;2.136;2023-01-24T00:46:32;23.70;;;13.10;;
61085;SDS011;46967;48.876;2.136;2023-01-24T00:48:57;21.38;;;12.77;;
61085;SDS011;46967;48.876;2.136;2023-01-24T00:51:23;24.25;;;13.25;;
61085;SDS011;46967;48.876;2.136;2023-01-24T00:53:48;21.08;;;12.75;;
61085;SDS011;46967;48.876;2.136;2023-01-24T00:56:14;20.50;;;12.48;;
61085;SDS011;46967;48.876;2.136;2023-01-24T00:58:39;21.42;;;12.85;;
61085;SDS011;46967;48.876;2.136;2023-01-24T01:01:04;19.42;;;12.05;;
61085;SDS011;46967;48.876;2.136;2023-01-24T01:03:30;22.20;;;12.85;;
61085;SDS011;46967;48.876;2.136;2023-01-24T01:05:57;20.48;;;12.35;;
61085;SDS011;46967;48.876;2.136;2023-01-24T01:08:26;22.77;;;12.90;;
61085;SDS011;46967;48.876;2.136;2023-01-24T01:10:52;19.77;;;11.70;;
61085;SDS011;46967;48.876;2.136;2023-01-24T01:13:17;21.20;;;12.35;;
61085;SDS011;46967;48.876;2.136;2023-01-24T01:15:42;21.42;;;12.73;;
61085;SDS011;46967;48.876;2.136;2023-01-24T01:18:08;22.85;;;13.30;;
61085;SDS011;46967;48.876;2.136;2023-01-24T01:20:33;22.60;;;12.85;;
61085;SDS011;46967;48.876;2.136;2023-01-24T01:22:59;21.52;;;13.10;;
61085;SDS011;46967;48.876;2.136;2023-01-24T01:25:24;21.08;;;12.70;;
61085;SDS011;46967;48.876;2.136;2023-01-24T01:27:49;21.83;;;13.07;;
61085;SDS011;46967;48.876;2.136;2023-01-24T01:30:15;22.38;;;13.35;;
61085;SDS011;46967;48.876;2.136;2023-01-24T01:32:40;21.30;;;13.40;;
61085;SDS011;46967;48.876;2.136;2023-01-24T01:35:06;22.83;;;13.63;;
61085;SDS011;46967;48.876;2.136;2023-01-24T01:37:31;21.17;;;13.45;;
61085;SDS011;46967;48.876;2.136;2023-01-24T01:39:56;23.73;;;13.23;;
61085;SDS011;46967;48.876;2.136;2023-01-24T01:42:22;25.33;;;13.70;;
61085;SDS011;46967;48.876;2.136;2023-01-24T01:44:47;22.08;;;12.75;;
61085;SDS011;46967;48.876;2.136;2023-01-24T01:52:48;23.90;;;14.13;;
61085;SDS011;46967;48.876;2.136;2023-01-24T01:55:20;21.45;;;13.07;;
61085;SDS011;46967;48.876;2.136;2023-01-24T01:57:48;23.42;;;13.13;;
61085;SDS011;46967;48.876;2.136;2023-01-24T02:00:17;21.65;;;13.00;;
61085;SDS011;46967;48.876;2.136;2023-01-24T02:02:48;22.25;;;12.98;;
61085;SDS011;46967;48.876;2.136;2023-01-24T02:05:18;21.60;;;13.00;;
61085;SDS011;46967;48.876;2.136;2023-01-24T02:10:19;23.13;;;13.20;;
61085;SDS011;46967;48.876;2.136;2023-01-24T02:12:47;21.35;;;12.82;;
61085;SDS011;46967;48.876;2.136;2023-01-24T02:15:16;22.25;;;12.55;;
61085;SDS011;46967;48.876;2.136;2023-01-24T02:18:01;20.27;;;12.05;;
61085;SDS011;46967;48.876;2.136;2023-01-24T02:28:31;18.45;;;11.15;;
61085;SDS011;46967;48.876;2.136;2023-01-24T02:30:58;19.73;;;12.10;;
61085;SDS011;46967;48.876;2.136;2023-01-24T02:33:24;20.23;;;12.00;;
61085;SDS011;46967;48.876;2.136;2023-01-24T02:35:49;18.30;;;12.10;;
61085;SDS011;46967;48.876;2.136;2023-01-24T02:40:49;18.58;;;11.45;;
61085;SDS011;46967;48.876;2.136;2023-01-24T02:43:17;19.50;;;12.00;;
61085;SDS011;46967;48.876;2.136;2023-01-24T02:45:45;17.10;;;11.35;;
61085;SDS011;46967;48.876;2.136;2023-01-24T02:48:10;19.70;;;11.48;;
61085;SDS011;46967;48.876;2.136;2023-01-24T02:50:36;17.50;;;11.57;;
61085;SDS011;46967;48.876;2.136;2023-01-24T02:53:20;23.30;;;12.18;;
61085;SDS011;46967;48.876;2.136;2023-01-24T02:56:02;19.88;;;11.98;;
61085;SDS011;46967;48.876;2.136;2023-01-24T02:58:48;19.95;;;11.25;;
61085;SDS011;46967;48.876;2.136;2023-01-24T03:01:14;19.88;;;12.57;;
61085;SDS011;46967;48.876;2.136;2023-01-24T03:03:44;18.55;;;12.55;;
61085;SDS011;46967;48.876;2.136;2023-01-24T03:06:10;21.40;;;12.68;;
61085;SDS011;46967;48.876;2.136;2023-01-24T03:08:36;19.88;;;11.65;;
61085;SDS011;46967;48.876;2.136;2023-01-24T03:11:02;18.85;;;11.45;;
61085;SDS011;46967;48.876;2.136;2023-01-24T03:13:28;20.42;;;11.98;;
61085;SDS011;46967;48.876;2.136;2023-01-24T03:16:12;18.20;;;11.15;;
61085;SDS011;46967;48.876;2.136;2023-01-24T03:18:56;18.70;;;12.10;;
61085;SDS011;46967;48.876;2.136;2023-01-24T03:21:41;18.42;;;11.18;;
61085;SDS011;46967;48.876;2.136;2023-01-24T03:24:25;17.92;;;10.75;;
61085;SDS011;46967;48.876;2.136;2023-01-24T03:27:09;18.33;;;11.40;;
61085;SDS011;46967;48.876;2.136;2023-01-24T03:29:53;18.70;;;11.85;;
61085;SDS011;46967;48.876;2.136;2023-01-24T03:32:37;18.35;;;11.80;;
61085;SDS011;46967;48.876;2.136;2023-01-24T03:35:22;17.40;;;11.23;;
61085;SDS011;46967;48.876;2.136;2023-01-24T03:37:48;19.80;;;11.25;;
61085;SDS011;46967;48.876;2.136;2023-01-24T03:40:32;16.60;;;11.18;;
61085;SDS011;46967;48.876;2.136;2023-01-24T03:42:58;19.15;;;11.13;;
61085;SDS011;46967;48.876;2.136;2023-01-24T03:45:29;19.65;;;12.10;;
61085;SDS011;46967;48.876;2.136;2023-01-24T03:47:57;19.17;;;11.18;;
61085;SDS011;46967;48.876;2.136;2023-01-24T03:50:28;20.60;;;11.77;;
61085;SDS011;46967;48.876;2.136;2023-01-24T03:53:14;17.58;;;11.73;;
61085;SDS011;46967;48.876;2.136;2023-01-24T03:55:41;17.33;;;11.23;;
61085;SDS011;46967;48.876;2.136;2023-01-24T03:58:07;20.35;;;12.00;;
61085;SDS011;46967;48.876;2.136;2023-01-24T04:00:34;18.13;;;11.32;;
61085;SDS011;46967;48.876;2.136;2023-01-24T04:03:00;20.50;;;11.60;;
61085;SDS011;46967;48.876;2.136;2023-01-24T04:05:26;21.55;;;11.68;;
61085;SDS011;46967;48.876;2.136;2023-01-24T04:07:54;20.35;;;11.65;;
61085;SDS011;46967;48.876;2.136;2023-01-24T04:10:20;20.83;;;11.95;;
61085;SDS011;46967;48.876;2.136;2023-01-24T04:12:47;22.35;;;12.73;;
61085;SDS011;46967;48.876;2.136;2023-01-24T04:15:14;20.55;;;12.63;;
61085;SDS011;46967;48.876;2.136;2023-01-24T04:17:45;20.73;;;12.68;;
61085;SDS011;46967;48.876;2.136;2023-01-24T04:20:10;19.50;;;12.18;;
61085;SDS011;46967;48.876;2.136;2023-01-24T04:22:36;20.02;;;12.38;;
61085;SDS011;46967;48.876;2.136;2023-01-24T04:25:01;20.85;;;13.23;;
61085;SDS011;46967;48.876;2.136;2023-01-24T04:27:27;20.13;;;12.85;;
61085;SDS011;46967;48.876;2.136;2023-01-24T04:29:52;21.10;;;12.85;;
61085;SDS011;46967;48.876;2.136;2023-01-24T04:32:17;21.77;;;12.45;;
61085;SDS011;46967;48.876;2.136;2023-01-24T04:34:43;20.20;;;12.82;;
61085;SDS011;46967;48.876;2.136;2023-01-24T04:37:08;18.80;;;12.38;;
61085;SDS011;46967;48.876;2.136;2023-01-24T04:39:33;19.52;;;12.05;;
61085;SDS011;46967;48.876;2.136;2023-01-24T04:41:59;20.38;;;12.00;;
61085;SDS011;46967;48.876;2.136;2023-01-24T04:44:24;19.63;;;12.15;;
61085;SDS011;46967;48.876;2.136;2023-01-24T04:46:49;19.35;;;13.15;;
61085;SDS011;46967;48.876;2.136;2023-01-24T04:49:15;18.88;;;11.90;;
61085;SDS011;46967;48.876;2.136;2023-01-24T04:51:40;19.15;;;11.50;;
61085;SDS011;46967;48.876;2.136;2023-01-24T04:54:11;21.30;;;12.30;;
61085;SDS011;46967;48.876;2.136;2023-01-24T04:56:36;20.65;;;12.52;;
61085;SDS011;46967;48.876;2.136;2023-01-24T04:59:02;20.30;;;12.60;;
61085;SDS011;46967;48.876;2.136;2023-01-24T05:01:27;21.25;;;12.75;;
61085;SDS011;46967;48.876;2.136;2023-01-24T05:03:52;18.48;;;11.68;;
61085;SDS011;46967;48.876;2.136;2023-01-24T05:06:23;19.88;;;12.45;;
61085;SDS011;46967;48.876;2.136;2023-01-24T05:08:53;21.27;;;11.93;;
61085;SDS011;46967;48.876;2.136;2023-01-24T05:11:19;21.02;;;12.88;;
61085;SDS011;46967;48.876;2.136;2023-01-24T05:13:44;22.25;;;12.70;;
61085;SDS011;46967;48.876;2.136;2023-01-24T05:16:10;21.15;;;12.52;;
61085;SDS011;46967;48.876;2.136;2023-01-24T05:18:35;19.15;;;12.48;;
61085;SDS011;46967;48.876;2.136;2023-01-24T05:21:04;21.52;;;13.02;;
61085;SDS011;46967;48.876;2.136;2023-01-24T05:23:33;22.15;;;13.27;;
61085;SDS011;46967;48.876;2.136;2023-01-24T05:25:59;19.15;;;12.35;;
61085;SDS011;46967;48.876;2.136;2023-01-24T05:28:27;20.80;;;12.80;;
61085;SDS011;46967;48.876;2.136;2023-01-24T05:30:57;20.17;;;13.20;;
61085;SDS011;46967;48.876;2.136;2023-01-24T05:33:24;18.77;;;12.48;;
61085;SDS011;46967;48.876;2.136;2023-01-24T05:35:55;20.70;;;13.18;;
61085;SDS011;46967;48.876;2.136;2023-01-24T05:38:22;20.88;;;12.80;;
61085;SDS011;46967;48.876;2.136;2023-01-24T05:40:47;22.00;;;14.15;;
61085;SDS011;46967;48.876;2.136;2023-01-24T05:43:12;25.42;;;14.88;;
61085;SDS011;46967;48.876;2.136;2023-01-24T05:45:37;21.23;;;14.43;;
61085;SDS011;46967;48.876;2.136;2023-01-24T05:48:03;21.67;;;14.35;;
61085;SDS011;46967;48.876;2.136;2023-01-24T05:50:28;22.55;;;14.75;;
61085;SDS011;46967;48.876;2.136;2023-01-24T05:52:54;23.10;;;14.40;;
61085;SDS011;46967;48.876;2.136;2023-01-24T05:55:19;25.00;;;15.10;;
61085;SDS011;46967;48.876;2.136;2023-01-24T05:57:44;25.92;;;14.88;;
61085;SDS011;46967;48.876;2.136;2023-01-24T06:00:10;22.48;;;14.35;;
61085;SDS011;46967;48.876;2.136;2023-01-24T06:02:35;24.02;;;14.82;;
61085;SDS011;46967;48.876;2.136;2023-01-24T06:05:01;22.27;;;15.25;;
61085;SDS011;46967;48.876;2.136;2023-01-24T06:07:26;24.13;;;15.30;;
61085;SDS011;46967;48.876;2.136;2023-01-24T06:09:51;22.23;;;14.77;;
61085;SDS011;46967;48.876;2.136;2023-01-24T06:12:17;24.67;;;15.45;;
61085;SDS011;46967;48.876;2.136;2023-01-24T06:14:42;25.30;;;14.57;;
61085;SDS011;46967;48.876;2.136;2023-01-24T06:17:07;24.80;;;15.32;;
61085;SDS011;46967;48.876;2.136;2023-01-24T06:19:33;25.48;;;15.77;;
61085;SDS011;46967;48.876;2.136;2023-01-24T06:22:10;21.90;;;14.40;;
61085;SDS011;46967;48.876;2.136;2023-01-24T06:24:50;24.75;;;15.02;;
61085;SDS011;46967;48.876;2.136;2023-01-24T06:27:16;28.17;;;16.35;;
61085;SDS011;46967;48.876;2.136;2023-01-24T06:29:41;25.02;;;15.45;;
61085;SDS011;46967;48.876;2.136;2023-01-24T06:40:20;30.00;;;16.67;;
61085;SDS011;46967;48.876;2.136;2023-01-24T06:42:48;27.83;;;16.73;;
61085;SDS011;46967;48.876;2.136;2023-01-24T06:45:14;30.80;;;18.90;;
61085;SDS011;46967;48.876;2.136;2023-01-24T06:47:40;30.30;;;18.58;;
61085;SDS011;46967;48.876;2.136;2023-01-24T06:50:06;28.80;;;18.33;;
61085;SDS011;46967;48.876;2.136;2023-01-24T06:52:33;32.92;;;18.65;;
61085;SDS011;46967;48.876;2.136;2023-01-24T06:55:00;29.10;;;18.23;;
61085;SDS011;46967;48.876;2.136;2023-01-24T06:57:26;28.17;;;17.55;;
61085;SDS011;46967;48.876;2.136;2023-01-24T06:59:51;32.22;;;19.23;;
61085;SDS011;46967;48.876;2.136;2023-01-24T07:02:16;30.55;;;18.80;;
61085;SDS011;46967;48.876;2.136;2023-01-24T07:04:42;27.40;;;17.83;;
61085;SDS011;46967;48.876;2.136;2023-01-24T07:07:07;31.52;;;19.25;;
61085;SDS011;46967;48.876;2.136;2023-01-24T07:09:32;29.52;;;18.45;;
61085;SDS011;46967;48.876;2.136;2023-01-24T07:11:58;28.92;;;17.08;;
61085;SDS011;46967;48.876;2.136;2023-01-24T07:14:24;31.83;;;18.95;;
61085;SDS011;46967;48.876;2.136;2023-01-24T07:16:50;32.13;;;19.55;;
61085;SDS011;46967;48.876;2.136;2023-01-24T07:19:17;31.20;;;19.13;;
61085;SDS011;46967;48.876;2.136;2023-01-24T07:24:13;29.58;;;18.48;;
61085;SDS011;46967;48.876;2.136;2023-01-24T07:26:43;32.25;;;18.90;;
61085;SDS011;46967;48.876;2.136;2023-01-24T07:29:08;33.70;;;20.52;;
61085;SDS011;46967;48.876;2.136;2023-01-24T07:31:34;36.17;;;19.63;;
61085;SDS011;46967;48.876;2.136;2023-01-24T07:33:59;32.50;;;19.40;;
61085;SDS011;46967;48.876;2.136;2023-01-24T07:36:24;31.55;;;18.73;;
61085;SDS011;46967;48.876;2.136;2023-01-24T07:38:53;28.77;;;17.67;;
61085;SDS011;46967;48.876;2.136;2023-01-24T07:41:19;30.50;;;18.50;;
61085;SDS011;46967;48.876;2.136;2023-01-24T07:43:45;30.25;;;18.88;;
61085;SDS011;46967;48.876;2.136;2023-01-24T07:46:10;29.52;;;18.75;;
61085;SDS011;46967;48.876;2.136;2023-01-24T07:48:35;31.27;;;17.83;;
61085;SDS011;46967;48.876;2.136;2023-01-24T07:51:01;28.10;;;17.95;;
61085;SDS011;46967;48.876;2.136;2023-01-24T07:53:26;29.83;;;18.48;;
61085;SDS011;46967;48.876;2.136;2023-01-24T07:55:52;30.42;;;18.33;;
61085;SDS011;46967;48.876;2.136;2023-01-24T07:58:17;28.05;;;17.10;;
61085;SDS011;46967;48.876;2.136;2023-01-24T08:00:43;30.27;;;18.60;;
61085;SDS011;46967;48.876;2.136;2023-01-24T08:03:09;27.92;;;17.77;;
61085;SDS011;46967;48.876;2.136;2023-01-24T08:05:38;31.70;;;17.75;;
61085;SDS011;46967;48.876;2.136;2023-01-24T08:08:04;26.77;;;16.45;;
61085;SDS011;46967;48.876;2.136;2023-01-24T08:10:29;27.75;;;17.33;;
61085;SDS011;46967;48.876;2.136;2023-01-24T08:12:55;26.50;;;17.10;;
61085;SDS011;46967;48.876;2.136;2023-01-24T08:15:21;27.90;;;17.50;;
61085;SDS011;46967;48.876;2.136;2023-01-24T08:17:46;26.42;;;17.58;;
61085;SDS011;46967;48.876;2.136;2023-01-24T08:20:12;26.70;;;17.73;;
61085;SDS011;46967;48.876;2.136;2023-01-24T08:22:39;28.00;;;17.65;;
61085;SDS011;46967;48.876;2.136;2023-01-24T08:25:05;30.95;;;17.85;;
61085;SDS011;46967;48.876;2.136;2023-01-24T08:27:31;29.15;;;17.85;;
61085;SDS011;46967;48.876;2.136;2023-01-24T08:29:56;30.00;;;18.17;;
61085;SDS011;46967;48.876;2.136;2023-01-24T08:32:22;29.75;;;18.15;;
61085;SDS011;46967;48.876;2.136;2023-01-24T08:34:47;30.55;;;18.05;;
61085;SDS011;46967;48.876;2.136;2023-01-24T08:37:12;32.10;;;19.10;;
61085;SDS011;46967;48.876;2.136;2023-01-24T08:39:38;30.13;;;18.10;;
61085;SDS011;46967;48.876;2.136;2023-01-24T08:42:03;27.63;;;17.25;;
61085;SDS011;46967;48.876;2.136;2023-01-24T08:44:28;30.80;;;19.27;;
61085;SDS011;46967;48.876;2.136;2023-01-24T08:46:54;29.02;;;17.42;;
61085;SDS011;46967;48.876;2.136;2023-01-24T08:49:19;31.35;;;17.35;;
61085;SDS011;46967;48.876;2.136;2023-01-24T08:51:45;28.85;;;17.58;;
61085;SDS011;46967;48.876;2.136;2023-01-24T08:54:12;29.90;;;18.25;;
61085;SDS011;46967;48.876;2.136;2023-01-24T08:56:38;29.40;;;18.60;;
61085;SDS011;46967;48.876;2.136;2023-01-24T08:59:03;28.55;;;17.60;;
61085;SDS011;46967;48.876;2.136;2023-01-24T09:01:28;25.88;;;17.35;;
61085;SDS011;46967;48.876;2.136;2023-01-24T09:03:54;28.15;;;16.75;;
61085;SDS011;46967;48.876;2.136;2023-01-24T09:06:21;28.20;;;17.73;;
61085;SDS011;46967;48.876;2.136;2023-01-24T09:08:47;28.85;;;16.63;;
61085;SDS011;46967;48.876;2.136;2023-01-24T09:11:12;30.10;;;17.50;;
61085;SDS011;46967;48.876;2.136;2023-01-24T09:13:38;29.15;;;18.23;;
61085;SDS011;46967;48.876;2.136;2023-01-24T09:16:03;32.50;;;18.13;;
61085;SDS011;46967;48.876;2.136;2023-01-24T09:18:29;37.78;;;18.30;;
61085;SDS011;46967;48.876;2.136;2023-01-24T09:20:54;31.58;;;20.08;;
61085;SDS011;46967;48.876;2.136;2023-01-24T09:23:19;31.08;;;17.98;;
61085;SDS011;46967;48.876;2.136;2023-01-24T09:25:51;30.17;;;18.73;;
61085;SDS011;46967;48.876;2.136;2023-01-24T09:28:17;35.30;;;18.38;;
61085;SDS011;46967;48.876;2.136;2023-01-24T09:30:45;27.48;;;17.40;;
61085;SDS011;46967;48.876;2.136;2023-01-24T09:33:14;35.08;;;18.40;;
61085;SDS011;46967;48.876;2.136;2023-01-24T09:35:40;29.95;;;18.23;;
61085;SDS011;46967;48.876;2.136;2023-01-24T09:38:05;29.88;;;17.52;;
61085;SDS011;46967;48.876;2.136;2023-01-24T09:40:54;27.45;;;17.60;;
61085;SDS011;46967;48.876;2.136;2023-01-24T09:43:45;30.20;;;18.05;;
61085;SDS011;46967;48.876;2.136;2023-01-24T09:48:49;31.90;;;18.83;;
61085;SDS011;46967;48.876;2.136;2023-01-24T09:51:21;30.17;;;18.60;;
61085;SDS011;46967;48.876;2.136;2023-01-24T09:53:50;30.90;;;19.13;;
61085;SDS011;46967;48.876;2.136;2023-01-24T10:01:37;29.83;;;18.15;;
61085;SDS011;46967;48.876;2.136;2023-01-24T10:04:08;32.22;;;19.63;;
61085;SDS011;46967;48.876;2.136;2023-01-24T10:06:39;30.92;;;17.92;;
61085;SDS011;46967;48.876;2.136;2023-01-24T10:20:16;34.85;;;18.58;;
61085;SDS011;46967;48.876;2.136;2023-01-24T10:22:51;33.35;;;18.45;;
61085;SDS011;46967;48.876;2.136;2023-01-24T10:25:25;33.50;;;17.95;;
61085;SDS011;46967;48.876;2.136;2023-01-24T10:27:54;30.00;;;18.08;;
61085;SDS011;46967;48.876;2.136;2023-01-24T10:30:47;33.60;;;19.27;;
61085;SDS011;46967;48.876;2.136;2023-01-24T10:33:19;31.70;;;18.55;;
61085;SDS011;46967;48.876;2.136;2023-01-24T10:38:19;34.33;;;19.30;;
61085;SDS011;46967;48.876;2.136;2023-01-24T10:40:48;30.20;;;19.17;;
61085;SDS011;46967;48.876;2.136;2023-01-24T10:43:19;34.28;;;20.25;;
61085;SDS011;46967;48.876;2.136;2023-01-24T10:46:10;32.92;;;19.42;;
61085;SDS011;46967;48.876;2.136;2023-01-24T10:48:45;40.83;;;20.90;;
61085;SDS011;46967;48.876;2.136;2023-01-24T10:51:18;34.17;;;19.75;;
61085;SDS011;46967;48.876;2.136;2023-01-24T10:53:45;37.10;;;19.95;;
61085;SDS011;46967;48.876;2.136;2023-01-24T10:56:11;33.05;;;18.38;;
61085;SDS011;46967;48.876;2.136;2023-01-24T10:58:57;38.05;;;20.58;;
61085;SDS011;46967;48.876;2.136;2023-01-24T11:06:51;34.28;;;20.35;;
61085;SDS011;46967;48.876;2.136;2023-01-24T11:09:17;31.02;;;18.48;;
61085;SDS011;46967;48.876;2.136;2023-01-24T11:11:53;31.88;;;17.88;;
61085;SDS011;46967;48.876;2.136;2023-01-24T11:14:21;31.85;;;18.95;;
61085;SDS011;46967;48.876;2.136;2023-01-24T11:16:50;35.78;;;19.13;;
61085;SDS011;46967;48.876;2.136;2023-01-24T11:19:21;33.92;;;19.98;;
61085;SDS011;46967;48.876;2.136;2023-01-24T11:21:52;29.52;;;18.73;;
61085;SDS011;46967;48.876;2.136;2023-01-24T11:24:20;32.47;;;18.77;;
61085;SDS011;46967;48.876;2.136;2023-01-24T11:27:07;32.10;;;18.92;;
61085;SDS011;46967;48.876;2.136;2023-01-24T11:29:44;30.73;;;18.33;;
61085;SDS011;46967;48.876;2.136;2023-01-24T11:32:32;30.42;;;18.42;;
61085;SDS011;46967;48.876;2.136;2023-01-24T11:35:19;31.42;;;17.85;;
61085;SDS011;46967;48.876;2.136;2023-01-24T11:40:46;31.75;;;18.10;;
61085;SDS011;46967;48.876;2.136;2023-01-24T11:48:55;30.83;;;18.23;;
61085;SDS011;46967;48.876;2.136;2023-01-24T11:54:09;28.67;;;17.77;;
61085;SDS011;46967;48.876;2.136;2023-01-24T11:57:00;26.55;;;16.67;;
61085;SDS011;46967;48.876;2.136;2023-01-24T12:13:08;28.92;;;17.55;;
61085;SDS011;46967;48.876;2.136;2023-01-24T12:15:40;31.58;;;18.30;;
61085;SDS011;46967;48.876;2.136;2023-01-24T12:21:10;25.65;;;16.05;;
61085;SDS011;46967;48.876;2.136;2023-01-24T12:26:26;27.95;;;15.48;;
61085;SDS011;46967;48.876;2.136;2023-01-24T12:39:46;27.67;;;15.98;;
61085;SDS011;46967;48.876;2.136;2023-01-24T12:42:21;26.42;;;15.20;;
61085;SDS011;46967;48.876;2.136;2023-01-24T12:44:58;28.33;;;15.43;;
61085;SDS011;46967;48.876;2.136;2023-01-24T12:50:14;25.55;;;15.68;;
61085;SDS011;46967;48.876;2.136;2023-01-24T13:03:28;23.15;;;13.95;;
61085;SDS011;46967;48.876;2.136;2023-01-24T13:06:14;26.20;;;14.75;;
61085;SDS011;46967;48.876;2.136;2023-01-24T13:11:24;28.17;;;15.93;;
61085;SDS011;46967;48.876;2.136;2023-01-24T13:22:25;30.95;;;16.15;;
61085;SDS011;46967;48.876;2.136;2023-01-24T13:31:06;28.13;;;16.00;;
61085;SDS011;46967;48.876;2.136;2023-01-24T13:36:12;27.67;;;16.85;;
61085;SDS011;46967;48.876;2.136;2023-01-24T13:38:42;26.65;;;15.48;;
61085;SDS011;46967;48.876;2.136;2023-01-24T13:41:16;26.92;;;15.30;;
61085;SDS011;46967;48.876;2.136;2023-01-24T13:44:38;29.30;;;15.73;;
61085;SDS011;46967;48.876;2.136;2023-01-24T13:51:53;31.35;;;17.75;;
61085;SDS011;46967;48.876;2.136;2023-01-24T13:59:38;24.75;;;15.05;;
61085;SDS011;46967;48.876;2.136;2023-01-24T14:04:52;28.88;;;16.38;;
61085;SDS011;46967;48.876;2.136;2023-01-24T14:07:18;28.73;;;15.48;;
61085;SDS011;46967;48.876;2.136;2023-01-24T14:09:53;22.42;;;13.93;;
61085;SDS011;46967;48.876;2.136;2023-01-24T14:12:22;27.30;;;15.60;;
61085;SDS011;46967;48.876;2.136;2023-01-24T14:14:58;24.60;;;14.27;;
61085;SDS011;46967;48.876;2.136;2023-01-24T14:17:46;27.20;;;15.00;;
61085;SDS011;46967;48.876;2.136;2023-01-24T14:20:20;26.77;;;15.18;;
61085;SDS011;46967;48.876;2.136;2023-01-24T14:22:52;25.25;;;15.65;;
61085;SDS011;46967;48.876;2.136;2023-01-24T14:28:16;27.13;;;15.75;;
61085;SDS011;46967;48.876;2.136;2023-01-24T14:30:48;26.00;;;15.35;;
61085;SDS011;46967;48.876;2.136;2023-01-24T14:36:00;27.35;;;15.27;;
61085;SDS011;46967;48.876;2.136;2023-01-24T14:38:31;25.83;;;15.50;;
61085;SDS011;46967;48.876;2.136;2023-01-24T14:40:56;26.75;;;15.23;;
61085;SDS011;46967;48.876;2.136;2023-01-24T14:43:23;29.95;;;18.23;;
61085;SDS011;46967;48.876;2.136;2023-01-24T14:45:56;27.10;;;16.08;;
61085;SDS011;46967;48.876;2.136;2023-01-24T14:48:23;27.75;;;16.17;;
61085;SDS011;46967;48.876;2.136;2023-01-24T14:50:56;28.52;;;16.02;;
61085;SDS011;46967;48.876;2.136;2023-01-24T14:53:30;29.45;;;16.15;;
61085;SDS011;46967;48.876;2.136;2023-01-24T14:56:07;26.90;;;15.77;;
61085;SDS011;46967;48.876;2.136;2023-01-24T14:58:39;24.52;;;15.18;;
61085;SDS011;46967;48.876;2.136;2023-01-24T15:01:20;25.80;;;15.43;;
61085;SDS011;46967;48.876;2.136;2023-01-24T15:03:56;28.20;;;15.45;;
61085;SDS011;46967;48.876;2.136;2023-01-24T15:06:23;27.00;;;16.35;;
61085;SDS011;46967;48.876;2.136;2023-01-24T15:08:54;27.95;;;14.85;;
61085;SDS011;46967;48.876;2.136;2023-01-24T15:11:22;30.85;;;16.50;;
61085;SDS011;46967;48.876;2.136;2023-01-24T15:16:33;27.80;;;15.02;;
61085;SDS011;46967;48.876;2.136;2023-01-24T15:19:04;26.25;;;16.00;;
61085;SDS011;46967;48.876;2.136;2023-01-24T15:21:44;25.10;;;14.75;;
61085;SDS011;46967;48.876;2.136;2023-01-24T15:24:33;26.35;;;15.57;;
61085;SDS011;46967;48.876;2.136;2023-01-24T15:26:58;27.58;;;15.55;;
61085;SDS011;46967;48.876;2.136;2023-01-24T15:29:41;30.05;;;16.23;;
61085;SDS011;46967;48.876;2.136;2023-01-24T15:43:48;25.73;;;15.27;;
61085;SDS011;46967;48.876;2.136;2023-01-24T15:46:33;29.15;;;16.42;;
61085;SDS011;46967;48.876;2.136;2023-01-24T15:49:25;26.05;;;16.55;;
61085;SDS011;46967;48.876;2.136;2023-01-24T15:52:17;24.77;;;14.95;;
61085;SDS011;46967;48.876;2.136;2023-01-24T15:54:45;24.10;;;14.32;;
61085;SDS011;46967;48.876;2.136;2023-01-24T15:57:17;21.63;;;13.75;;
61085;SDS011;46967;48.876;2.136;2023-01-24T15:59:46;22.42;;;13.90;;
61085;SDS011;46967;48.876;2.136;2023-01-24T16:02:15;24.02;;;14.50;;
61085;SDS011;46967;48.876;2.136;2023-01-24T16:04:41;24.35;;;14.90;;
61085;SDS011;46967;48.876;2.136;2023-01-24T16:07:06;25.65;;;14.27;;
61085;SDS011;46967;48.876;2.136;2023-01-24T16:09:32;22.42;;;13.38;;
61085;SDS011;46967;48.876;2.136;2023-01-24T16:11:58;22.75;;;14.00;;
61085;SDS011;46967;48.876;2.136;2023-01-24T16:14:25;24.85;;;14.75;;
61085;SDS011;46967;48.876;2.136;2023-01-24T16:16:52;24.55;;;14.35;;
61085;SDS011;46967;48.876;2.136;2023-01-24T16:19:22;22.13;;;14.48;;
61085;SDS011;46967;48.876;2.136;2023-01-24T16:21:48;22.92;;;14.52;;
61085;SDS011;46967;48.876;2.136;2023-01-24T16:24:15;24.77;;;14.52;;
61085;SDS011;46967;48.876;2.136;2023-01-24T16:26:41;29.15;;;14.50;;
61085;SDS011;46967;48.876;2.136;2023-01-24T16:29:14;26.30;;;14.75;;
61085;SDS011;46967;48.876;2.136;2023-01-24T16:31:42;25.58;;;15.18;;
61085;SDS011;46967;48.876;2.136;2023-01-24T16:34:07;27.20;;;14.98;;
61085;SDS011;46967;48.876;2.136;2023-01-24T16:36:33;24.75;;;15.60;;
61085;SDS011;46967;48.876;2.136;2023-01-24T16:38:58;28.52;;;16.42;;
61085;SDS011;46967;48.876;2.136;2023-01-24T16:41:24;25.27;;;15.93;;
61085;SDS011;46967;48.876;2.136;2023-01-24T16:43:49;25.88;;;16.73;;
61085;SDS011;46967;48.876;2.136;2023-01-24T16:46:18;24.13;;;15.55;;
61085;SDS011;46967;48.876;2.136;2023-01-24T16:48:45;26.48;;;15.85;;
61085;SDS011;46967;48.876;2.136;2023-01-24T16:51:12;28.77;;;16.95;;
61085;SDS011;46967;48.876;2.136;2023-01-24T16:53:38;26.55;;;16.05;;
61085;SDS011;46967;48.876;2.136;2023-01-24T16:56:04;27.58;;;16.20;;
61085;SDS011;46967;48.876;2.136;2023-01-24T16:58:30;26.63;;;16.08;;
61085;SDS011;46967;48.876;2.136;2023-01-24T17:00:55;25.98;;;15.95;;
61085;SDS011;46967;48.876;2.136;2023-01-24T17:03:20;24.83;;;15.70;;
61085;SDS011;46967;48.876;2.136;2023-01-24T17:05:46;26.90;;;15.95;;
61085;SDS011;46967;48.876;2.136;2023-01-24T17:08:11;24.88;;;15.38;;
61085;SDS011;46967;48.876;2.136;2023-01-24T17:10:38;25.35;;;15.30;;
61085;SDS011;46967;48.876;2.136;2023-01-24T17:13:04;27.95;;;18.00;;
61085;SDS011;46967;48.876;2.136;2023-01-24T17:15:31;23.90;;;14.68;;